sensor_id;sensor_type;location;lat;lon;timestamp;temperature;humidity
957;DHT22;465;48.802;9.224;2022-09-06T00:00:08;20.70;99.90
957;DHT22;465;48.802;9.224;2022-09-06T00:02:36;20.70;99.90
957;DHT22;465;48.802;9.224;2022-09-06T00:05:04;20.70;99.90
957;DHT22;465;48.802;9.224;2022-09-06T00:07:32;20.60;99.90
957;DHT22;465;48.802;9.224;2022-09-06T00:09:59;20.70;99.90
957;DHT22;465;48.802;9.224;2022-09-06T00:12:26;20.70;99.90
957;DHT22;465;48.802;9.224;2022-09-06T00:14:53;20.60;99.90
957;DHT22;465;48.802;9.224;2022-09-06T00:17:20;20.60;99.90
957;DHT22;465;48.802;9.224;2022-09-06T00:19:47;20.50;99.90
957;DHT22;465;48.802;9.224;2022-09-06T00:22:14;20.40;99.90
957;DHT22;465;48.802;9.224;2022-09-06T00:24:42;20.30;99.90
957;DHT22;465;48.802;9.224;2022-09-06T00:27:08;20.20;99.90
957;DHT22;465;48.802;9.224;2022-09-06T00:29:35;20.10;99.90
957;DHT22;465;48.802;9.224;2022-09-06T00:32:02;20.00;99.90
957;DHT22;465;48.802;9.224;2022-09-06T00:34:29;20.10;99.90
957;DHT22;465;48.802;9.224;2022-09-06T00:36:56;20.00;99.90
957;DHT22;465;48.802;9.224;2022-09-06T00:39:22;20.00;99.90
957;DHT22;465;48.802;9.224;2022-09-06T00:41:50;20.00;99.90
957;DHT22;465;48.802;9.224;2022-09-06T00:44:17;20.00;99.90
957;DHT22;465;48.802;9.224;2022-09-06T00:46:45;19.90;99.90
957;DHT22;465;48.802;9.224;2022-09-06T00:49:17;19.90;99.90
957;DHT22;465;48.802;9.224;2022-09-06T00:51:50;19.90;99.90
957;DHT22;465;48.802;9.224;2022-09-06T00:54:18;19.90;99.90
957;DHT22;465;48.802;9.224;2022-09-06T00:56:45;19.90;99.90
957;DHT22;465;48.802;9.224;2022-09-06T00:59:14;19.90;99.90
957;DHT22;465;48.802;9.224;2022-09-06T01:01:41;19.90;99.90
957;DHT22;465;48.802;9.224;2022-09-06T01:04:08;19.80;99.90
957;DHT22;465;48.802;9.224;2022-09-06T01:06:43;19.80;99.90
957;DHT22;465;48.802;9.224;2022-09-06T01:09:20;19.80;99.90
957;DHT22;465;48.802;9.224;2022-09-06T01:12:03;19.80;99.90
957;DHT22;465;48.802;9.224;2022-09-06T01:14:43;19.80;99.90
957;DHT22;465;48.802;9.224;2022-09-06T01:17:23;19.80;99.90
957;DHT22;465;48.802;9.224;2022-09-06T01:23:47;19.90;99.90
957;DHT22;465;48.802;9.224;2022-09-06T01:29:26;19.70;99.90
957;DHT22;465;48.802;9.224;2022-09-06T01:32:02;19.70;99.90
957;DHT22;465;48.802;9.224;2022-09-06T01:34:33;19.60;99.90
957;DHT22;465;48.802;9.224;2022-09-06T01:37:03;19.60;99.90
957;DHT22;465;48.802;9.224;2022-09-06T01:39:32;19.60;99.90
957;DHT22;465;48.802;9.224;2022-09-06T01:42:03;19.50;99.90
957;DHT22;465;48.802;9.224;2022-09-06T01:44:33;19.50;99.90
957;DHT22;465;48.802;9.224;2022-09-06T01:47:09;19.50;99.90
957;DHT22;465;48.802;9.224;2022-09-06T01:49:50;19.50;99.90
957;DHT22;465;48.802;9.224;2022-09-06T01:52:25;19.50;99.90
957;DHT22;465;48.802;9.224;2022-09-06T01:55:06;19.50;99.90
957;DHT22;465;48.802;9.224;2022-09-06T01:58:00;19.50;99.90
957;DHT22;465;48.802;9.224;2022-09-06T02:00:37;19.40;99.90
957;DHT22;465;48.802;9.224;2022-09-06T02:03:09;19.40;99.90
957;DHT22;465;48.802;9.224;2022-09-06T02:05:41;19.50;99.90
957;DHT22;465;48.802;9.224;2022-09-06T02:08:11;19.50;99.90
957;DHT22;465;48.802;9.224;2022-09-06T02:10:44;19.50;99.90
957;DHT22;465;48.802;9.224;2022-09-06T02:13:12;19.50;99.90
957;DHT22;465;48.802;9.224;2022-09-06T02:15:45;19.50;99.90
957;DHT22;465;48.802;9.224;2022-09-06T02:18:15;19.50;99.90
957;DHT22;465;48.802;9.224;2022-09-06T02:20:46;19.40;99.90
957;DHT22;465;48.802;9.224;2022-09-06T02:23:15;19.50;99.90
957;DHT22;465;48.802;9.224;2022-09-06T02:25:48;19.50;99.90
957;DHT22;465;48.802;9.224;2022-09-06T02:28:16;19.60;99.90
957;DHT22;465;48.802;9.224;2022-09-06T02:30:48;19.60;99.90
957;DHT22;465;48.802;9.224;2022-09-06T02:33:17;19.80;99.90
957;DHT22;465;48.802;9.224;2022-09-06T02:35:46;19.90;99.90
957;DHT22;465;48.802;9.224;2022-09-06T02:38:15;19.90;99.90
957;DHT22;465;48.802;9.224;2022-09-06T02:40:43;19.90;99.90
957;DHT22;465;48.802;9.224;2022-09-06T02:43:10;19.90;99.90
957;DHT22;465;48.802;9.224;2022-09-06T02:45:38;20.00;99.90
957;DHT22;465;48.802;9.224;2022-09-06T02:48:06;20.10;99.90
957;DHT22;465;48.802;9.224;2022-09-06T02:50:33;20.10;99.90
957;DHT22;465;48.802;9.224;2022-09-06T02:53:01;20.10;99.90
957;DHT22;465;48.802;9.224;2022-09-06T02:55:28;20.00;99.90
957;DHT22;465;48.802;9.224;2022-09-06T02:57:55;20.00;99.90
957;DHT22;465;48.802;9.224;2022-09-06T03:00:22;19.90;99.90
957;DHT22;465;48.802;9.224;2022-09-06T03:02:48;19.70;99.90
957;DHT22;465;48.802;9.224;2022-09-06T03:05:16;19.70;99.90
957;DHT22;465;48.802;9.224;2022-09-06T03:07:43;19.50;99.90
957;DHT22;465;48.802;9.224;2022-09-06T03:10:10;19.30;99.90
957;DHT22;465;48.802;9.224;2022-09-06T03:12:36;19.20;99.90
957;DHT22;465;48.802;9.224;2022-09-06T03:15:04;19.10;99.90
957;DHT22;465;48.802;9.224;2022-09-06T03:17:31;19.00;99.90
957;DHT22;465;48.802;9.224;2022-09-06T03:19:57;18.90;99.90
957;DHT22;465;48.802;9.224;2022-09-06T03:22:25;19.00;99.90
957;DHT22;465;48.802;9.224;2022-09-06T03:24:52;18.90;99.90
957;DHT22;465;48.802;9.224;2022-09-06T03:27:19;18.80;99.90
957;DHT22;465;48.802;9.224;2022-09-06T03:29:46;18.80;99.90
957;DHT22;465;48.802;9.224;2022-09-06T03:32:12;18.80;99.90
957;DHT22;465;48.802;9.224;2022-09-06T03:34:39;18.80;99.90
957;DHT22;465;48.802;9.224;2022-09-06T03:37:06;18.80;99.90
957;DHT22;465;48.802;9.224;2022-09-06T03:39:34;18.90;99.90
957;DHT22;465;48.802;9.224;2022-09-06T03:42:01;18.90;99.90
957;DHT22;465;48.802;9.224;2022-09-06T03:44:28;18.80;99.90
957;DHT22;465;48.802;9.224;2022-09-06T03:46:54;18.80;99.90
957;DHT22;465;48.802;9.224;2022-09-06T03:49:21;18.70;99.90
957;DHT22;465;48.802;9.224;2022-09-06T03:51:48;18.60;99.90
957;DHT22;465;48.802;9.224;2022-09-06T03:54:14;18.50;99.90
957;DHT22;465;48.802;9.224;2022-09-06T03:56:42;18.50;99.90
957;DHT22;465;48.802;9.224;2022-09-06T03:59:09;18.50;99.90
957;DHT22;465;48.802;9.224;2022-09-06T04:01:37;18.60;99.90
957;DHT22;465;48.802;9.224;2022-09-06T04:04:04;18.50;99.90
957;DHT22;465;48.802;9.224;2022-09-06T04:06:31;18.50;99.90
957;DHT22;465;48.802;9.224;2022-09-06T04:08:58;18.50;99.90
957;DHT22;465;48.802;9.224;2022-09-06T04:11:24;18.50;99.90
957;DHT22;465;48.802;9.224;2022-09-06T04:13:52;18.50;99.90
957;DHT22;465;48.802;9.224;2022-09-06T04:16:19;18.50;99.90
957;DHT22;465;48.802;9.224;2022-09-06T04:18:49;18.50;99.90
957;DHT22;465;48.802;9.224;2022-09-06T04:21:16;18.40;99.90
957;DHT22;465;48.802;9.224;2022-09-06T04:23:43;18.40;99.90
957;DHT22;465;48.802;9.224;2022-09-06T04:26:09;18.40;99.90
957;DHT22;465;48.802;9.224;2022-09-06T04:28:36;18.40;99.90
957;DHT22;465;48.802;9.224;2022-09-06T04:31:05;18.40;99.90
957;DHT22;465;48.802;9.224;2022-09-06T04:33:33;18.40;99.90
957;DHT22;465;48.802;9.224;2022-09-06T04:36:01;18.50;99.90
957;DHT22;465;48.802;9.224;2022-09-06T04:38:29;18.40;99.90
957;DHT22;465;48.802;9.224;2022-09-06T04:40:57;18.50;99.90
957;DHT22;465;48.802;9.224;2022-09-06T04:43:24;18.50;99.90
957;DHT22;465;48.802;9.224;2022-09-06T04:45:50;18.50;99.90
957;DHT22;465;48.802;9.224;2022-09-06T04:48:18;18.50;99.90
957;DHT22;465;48.802;9.224;2022-09-06T04:50:45;18.50;99.90
957;DHT22;465;48.802;9.224;2022-09-06T04:53:12;18.50;99.90
957;DHT22;465;48.802;9.224;2022-09-06T04:55:38;18.50;99.90
957;DHT22;465;48.802;9.224;2022-09-06T04:58:05;18.50;99.90
957;DHT22;465;48.802;9.224;2022-09-06T05:00:33;18.50;99.90
957;DHT22;465;48.802;9.224;2022-09-06T05:03:00;18.60;99.90
957;DHT22;465;48.802;9.224;2022-09-06T05:05:28;18.60;99.90
957;DHT22;465;48.802;9.224;2022-09-06T05:07:55;18.60;99.90
957;DHT22;465;48.802;9.224;2022-09-06T05:10:22;18.70;99.90
957;DHT22;465;48.802;9.224;2022-09-06T05:12:50;18.70;99.90
957;DHT22;465;48.802;9.224;2022-09-06T05:15:17;18.70;99.90
957;DHT22;465;48.802;9.224;2022-09-06T05:17:44;18.90;99.90
957;DHT22;465;48.802;9.224;2022-09-06T05:20:12;18.90;99.90
957;DHT22;465;48.802;9.224;2022-09-06T05:22:40;18.90;99.90
957;DHT22;465;48.802;9.224;2022-09-06T05:25:08;19.00;99.90
957;DHT22;465;48.802;9.224;2022-09-06T05:27:35;18.90;99.90
957;DHT22;465;48.802;9.224;2022-09-06T05:30:01;19.00;99.90
957;DHT22;465;48.802;9.224;2022-09-06T05:32:28;19.10;99.90
957;DHT22;465;48.802;9.224;2022-09-06T05:34:55;19.10;99.90
957;DHT22;465;48.802;9.224;2022-09-06T05:37:22;19.10;99.90
957;DHT22;465;48.802;9.224;2022-09-06T05:39:50;19.10;99.90
957;DHT22;465;48.802;9.224;2022-09-06T05:42:17;19.10;99.90
957;DHT22;465;48.802;9.224;2022-09-06T05:44:43;19.20;99.90
957;DHT22;465;48.802;9.224;2022-09-06T05:47:10;19.20;99.90
957;DHT22;465;48.802;9.224;2022-09-06T05:49:36;19.20;99.90
957;DHT22;465;48.802;9.224;2022-09-06T05:52:03;19.20;99.90
957;DHT22;465;48.802;9.224;2022-09-06T05:54:30;19.20;99.90
957;DHT22;465;48.802;9.224;2022-09-06T05:56:58;19.30;99.90
957;DHT22;465;48.802;9.224;2022-09-06T05:59:25;19.30;99.90
957;DHT22;465;48.802;9.224;2022-09-06T06:01:52;19.40;99.90
957;DHT22;465;48.802;9.224;2022-09-06T06:04:19;19.40;99.90
957;DHT22;465;48.802;9.224;2022-09-06T06:06:47;19.50;99.90
957;DHT22;465;48.802;9.224;2022-09-06T06:09:14;19.50;99.90
957;DHT22;465;48.802;9.224;2022-09-06T06:11:41;19.50;99.90
957;DHT22;465;48.802;9.224;2022-09-06T06:14:10;19.60;99.90
957;DHT22;465;48.802;9.224;2022-09-06T06:16:37;19.60;99.90
957;DHT22;465;48.802;9.224;2022-09-06T06:19:03;19.60;99.90
957;DHT22;465;48.802;9.224;2022-09-06T06:21:31;19.60;99.90
957;DHT22;465;48.802;9.224;2022-09-06T06:24:00;19.60;99.90
957;DHT22;465;48.802;9.224;2022-09-06T06:26:28;19.70;99.90
957;DHT22;465;48.802;9.224;2022-09-06T06:28:56;19.80;99.90
957;DHT22;465;48.802;9.224;2022-09-06T06:31:27;19.90;99.90
957;DHT22;465;48.802;9.224;2022-09-06T06:33:54;20.00;99.90
957;DHT22;465;48.802;9.224;2022-09-06T06:36:22;20.10;99.90
957;DHT22;465;48.802;9.224;2022-09-06T06:38:52;20.10;99.90
957;DHT22;465;48.802;9.224;2022-09-06T06:41:21;20.20;99.90
957;DHT22;465;48.802;9.224;2022-09-06T06:43:50;20.40;99.90
957;DHT22;465;48.802;9.224;2022-09-06T06:46:17;20.40;99.90
957;DHT22;465;48.802;9.224;2022-09-06T06:48:46;20.50;99.90
957;DHT22;465;48.802;9.224;2022-09-06T06:51:14;20.50;99.90
957;DHT22;465;48.802;9.224;2022-09-06T06:53:41;20.60;99.90
957;DHT22;465;48.802;9.224;2022-09-06T06:56:16;20.90;99.90
957;DHT22;465;48.802;9.224;2022-09-06T06:58:43;21.20;99.90
957;DHT22;465;48.802;9.224;2022-09-06T07:01:10;21.50;99.90
957;DHT22;465;48.802;9.224;2022-09-06T07:03:38;21.70;99.90
957;DHT22;465;48.802;9.224;2022-09-06T07:06:07;21.90;99.90
957;DHT22;465;48.802;9.224;2022-09-06T07:08:34;22.20;99.90
957;DHT22;465;48.802;9.224;2022-09-06T07:11:02;22.50;99.90
957;DHT22;465;48.802;9.224;2022-09-06T07:13:29;22.60;99.90
957;DHT22;465;48.802;9.224;2022-09-06T07:16:06;22.60;99.90
957;DHT22;465;48.802;9.224;2022-09-06T07:18:33;23.20;99.90
957;DHT22;465;48.802;9.224;2022-09-06T07:21:00;24.10;99.90
957;DHT22;465;48.802;9.224;2022-09-06T07:23:28;24.30;99.90
957;DHT22;465;48.802;9.224;2022-09-06T07:25:55;24.60;99.90
957;DHT22;465;48.802;9.224;2022-09-06T07:28:22;24.50;99.90
957;DHT22;465;48.802;9.224;2022-09-06T07:30:52;24.60;99.90
957;DHT22;465;48.802;9.224;2022-09-06T07:33:19;25.10;99.90
957;DHT22;465;48.802;9.224;2022-09-06T07:35:54;24.90;99.90
957;DHT22;465;48.802;9.224;2022-09-06T07:38:21;24.80;99.90
957;DHT22;465;48.802;9.224;2022-09-06T07:40:53;24.50;99.90
957;DHT22;465;48.802;9.224;2022-09-06T07:43:20;24.20;99.90
957;DHT22;465;48.802;9.224;2022-09-06T07:45:47;24.20;99.90
957;DHT22;465;48.802;9.224;2022-09-06T07:48:14;24.40;99.90
957;DHT22;465;48.802;9.224;2022-09-06T07:50:41;24.90;99.90
957;DHT22;465;48.802;9.224;2022-09-06T07:53:08;25.40;99.90
957;DHT22;465;48.802;9.224;2022-09-06T07:55:35;25.30;99.90
957;DHT22;465;48.802;9.224;2022-09-06T07:58:03;25.10;99.90
957;DHT22;465;48.802;9.224;2022-09-06T08:00:30;25.10;99.90
957;DHT22;465;48.802;9.224;2022-09-06T08:02:57;25.00;99.90
957;DHT22;465;48.802;9.224;2022-09-06T08:05:24;25.10;99.90
957;DHT22;465;48.802;9.224;2022-09-06T08:07:51;25.20;99.90
957;DHT22;465;48.802;9.224;2022-09-06T08:10:17;25.20;99.90
957;DHT22;465;48.802;9.224;2022-09-06T08:12:44;25.50;99.90
957;DHT22;465;48.802;9.224;2022-09-06T08:15:12;25.60;99.90
957;DHT22;465;48.802;9.224;2022-09-06T08:17:39;25.90;99.90
957;DHT22;465;48.802;9.224;2022-09-06T08:20:06;25.80;99.90
957;DHT22;465;48.802;9.224;2022-09-06T08:22:33;25.80;99.90
957;DHT22;465;48.802;9.224;2022-09-06T08:25:00;25.80;99.90
957;DHT22;465;48.802;9.224;2022-09-06T08:27:26;26.10;99.90
957;DHT22;465;48.802;9.224;2022-09-06T08:29:53;26.10;99.00
957;DHT22;465;48.802;9.224;2022-09-06T08:32:22;26.30;99.30
957;DHT22;465;48.802;9.224;2022-09-06T08:34:48;26.60;98.80
957;DHT22;465;48.802;9.224;2022-09-06T08:37:15;26.90;98.20
957;DHT22;465;48.802;9.224;2022-09-06T08:39:42;27.80;96.70
957;DHT22;465;48.802;9.224;2022-09-06T08:42:10;29.70;94.00
957;DHT22;465;48.802;9.224;2022-09-06T08:44:39;31.60;88.50
957;DHT22;465;48.802;9.224;2022-09-06T08:47:08;33.30;79.60
957;DHT22;465;48.802;9.224;2022-09-06T08:49:40;33.40;75.90
957;DHT22;465;48.802;9.224;2022-09-06T08:52:35;34.10;70.50
957;DHT22;465;48.802;9.224;2022-09-06T08:55:15;34.80;66.90
957;DHT22;465;48.802;9.224;2022-09-06T08:57:58;35.60;63.40
957;DHT22;465;48.802;9.224;2022-09-06T09:00:26;35.60;61.30
957;DHT22;465;48.802;9.224;2022-09-06T09:03:03;35.00;61.60
957;DHT22;465;48.802;9.224;2022-09-06T09:05:35;35.00;62.00
957;DHT22;465;48.802;9.224;2022-09-06T09:08:11;35.30;60.10
957;DHT22;465;48.802;9.224;2022-09-06T09:10:41;35.00;60.00
957;DHT22;465;48.802;9.224;2022-09-06T09:13:19;34.80;60.00
957;DHT22;465;48.802;9.224;2022-09-06T09:15:47;35.00;60.60
957;DHT22;465;48.802;9.224;2022-09-06T09:18:17;34.60;60.80
957;DHT22;465;48.802;9.224;2022-09-06T09:20:47;33.80;61.50
957;DHT22;465;48.802;9.224;2022-09-06T09:23:14;33.40;63.40
957;DHT22;465;48.802;9.224;2022-09-06T09:25:41;34.00;63.70
957;DHT22;465;48.802;9.224;2022-09-06T09:28:13;35.00;59.70
957;DHT22;465;48.802;9.224;2022-09-06T09:30:47;35.60;58.40
957;DHT22;465;48.802;9.224;2022-09-06T09:33:26;35.00;58.90
957;DHT22;465;48.802;9.224;2022-09-06T09:35:55;34.40;59.80
957;DHT22;465;48.802;9.224;2022-09-06T09:38:26;34.00;61.10
957;DHT22;465;48.802;9.224;2022-09-06T09:40:54;33.40;62.60
957;DHT22;465;48.802;9.224;2022-09-06T09:43:23;33.10;62.60
957;DHT22;465;48.802;9.224;2022-09-06T09:46:16;33.20;63.10
957;DHT22;465;48.802;9.224;2022-09-06T09:49:00;34.00;61.80
957;DHT22;465;48.802;9.224;2022-09-06T09:51:29;35.30;57.80
957;DHT22;465;48.802;9.224;2022-09-06T09:53:57;36.30;55.80
957;DHT22;465;48.802;9.224;2022-09-06T09:56:28;36.40;55.10
957;DHT22;465;48.802;9.224;2022-09-06T09:58:56;37.80;54.10
957;DHT22;465;48.802;9.224;2022-09-06T10:01:26;39.00;51.10
957;DHT22;465;48.802;9.224;2022-09-06T10:04:02;38.50;49.50
957;DHT22;465;48.802;9.224;2022-09-06T10:06:31;38.10;49.40
957;DHT22;465;48.802;9.224;2022-09-06T10:08:58;37.30;50.80
957;DHT22;465;48.802;9.224;2022-09-06T10:11:39;37.90;50.40
957;DHT22;465;48.802;9.224;2022-09-06T10:14:12;38.10;50.00
957;DHT22;465;48.802;9.224;2022-09-06T10:16:43;39.00;48.10
957;DHT22;465;48.802;9.224;2022-09-06T10:19:39;39.70;47.30
957;DHT22;465;48.802;9.224;2022-09-06T10:22:21;40.00;45.40
957;DHT22;465;48.802;9.224;2022-09-06T10:25:17;39.50;45.40
957;DHT22;465;48.802;9.224;2022-09-06T10:27:58;40.10;44.70
957;DHT22;465;48.802;9.224;2022-09-06T10:30:28;40.20;43.40
957;DHT22;465;48.802;9.224;2022-09-06T10:33:00;40.30;44.10
957;DHT22;465;48.802;9.224;2022-09-06T10:35:31;41.00;42.80
957;DHT22;465;48.802;9.224;2022-09-06T10:38:19;40.70;42.00
957;DHT22;465;48.802;9.224;2022-09-06T10:40:59;38.00;43.90
957;DHT22;465;48.802;9.224;2022-09-06T10:43:34;36.60;46.60
957;DHT22;465;48.802;9.224;2022-09-06T10:46:10;35.80;47.60
957;DHT22;465;48.802;9.224;2022-09-06T10:48:43;35.30;49.00
957;DHT22;465;48.802;9.224;2022-09-06T10:51:15;34.80;49.10
957;DHT22;465;48.802;9.224;2022-09-06T10:53:49;34.60;50.10
957;DHT22;465;48.802;9.224;2022-09-06T10:56:31;34.70;49.80
957;DHT22;465;48.802;9.224;2022-09-06T10:59:02;34.80;50.60
957;DHT22;465;48.802;9.224;2022-09-06T11:01:31;34.70;50.00
957;DHT22;465;48.802;9.224;2022-09-06T11:04:07;34.40;50.10
957;DHT22;465;48.802;9.224;2022-09-06T11:06:41;34.10;50.70
957;DHT22;465;48.802;9.224;2022-09-06T11:09:16;34.10;51.30
957;DHT22;465;48.802;9.224;2022-09-06T11:11:50;34.00;51.50
957;DHT22;465;48.802;9.224;2022-09-06T11:14:24;33.90;51.20
957;DHT22;465;48.802;9.224;2022-09-06T11:16:56;33.60;51.20
957;DHT22;465;48.802;9.224;2022-09-06T11:19:28;33.40;51.60
957;DHT22;465;48.802;9.224;2022-09-06T11:22:16;33.40;52.50
957;DHT22;465;48.802;9.224;2022-09-06T11:25:06;32.90;52.30
957;DHT22;465;48.802;9.224;2022-09-06T11:27:41;32.60;53.70
957;DHT22;465;48.802;9.224;2022-09-06T11:30:13;33.90;53.10
957;DHT22;465;48.802;9.224;2022-09-06T11:32:42;35.10;50.40
957;DHT22;465;48.802;9.224;2022-09-06T11:35:21;36.00;48.00
957;DHT22;465;48.802;9.224;2022-09-06T11:37:58;35.70;48.30
957;DHT22;465;48.802;9.224;2022-09-06T11:40:28;35.20;48.50
957;DHT22;465;48.802;9.224;2022-09-06T11:43:09;35.10;49.50
957;DHT22;465;48.802;9.224;2022-09-06T11:45:45;34.60;49.30
957;DHT22;465;48.802;9.224;2022-09-06T11:48:48;35.00;49.70
957;DHT22;465;48.802;9.224;2022-09-06T11:51:31;35.30;49.20
957;DHT22;465;48.802;9.224;2022-09-06T11:54:05;37.60;48.10
957;DHT22;465;48.802;9.224;2022-09-06T11:56:41;40.50;43.10
957;DHT22;465;48.802;9.224;2022-09-06T11:59:28;42.10;40.10
957;DHT22;465;48.802;9.224;2022-09-06T12:02:00;43.20;38.60
957;DHT22;465;48.802;9.224;2022-09-06T12:07:32;44.20;36.30
957;DHT22;465;48.802;9.224;2022-09-06T12:10:00;44.30;35.80
957;DHT22;465;48.802;9.224;2022-09-06T12:12:43;44.40;35.30
957;DHT22;465;48.802;9.224;2022-09-06T12:15:26;43.80;35.70
957;DHT22;465;48.802;9.224;2022-09-06T12:17:54;42.10;36.90
957;DHT22;465;48.802;9.224;2022-09-06T12:23:41;41.90;38.90
957;DHT22;465;48.802;9.224;2022-09-06T12:26:45;40.80;39.30
957;DHT22;465;48.802;9.224;2022-09-06T12:29:14;39.60;41.30
957;DHT22;465;48.802;9.224;2022-09-06T12:31:42;38.30;43.10
957;DHT22;465;48.802;9.224;2022-09-06T12:34:16;37.20;45.30
957;DHT22;465;48.802;9.224;2022-09-06T12:36:56;36.20;50.00
957;DHT22;465;48.802;9.224;2022-09-06T12:39:26;35.20;55.50
957;DHT22;465;48.802;9.224;2022-09-06T12:41:58;34.30;59.60
957;DHT22;465;48.802;9.224;2022-09-06T12:44:32;33.50;59.90
957;DHT22;465;48.802;9.224;2022-09-06T12:47:08;32.70;65.70
957;DHT22;465;48.802;9.224;2022-09-06T12:49:35;31.80;70.90
957;DHT22;465;48.802;9.224;2022-09-06T12:52:09;30.90;74.00
957;DHT22;465;48.802;9.224;2022-09-06T12:54:45;30.50;79.00
957;DHT22;465;48.802;9.224;2022-09-06T12:57:17;30.10;85.60
957;DHT22;465;48.802;9.224;2022-09-06T12:59:49;29.80;90.00
957;DHT22;465;48.802;9.224;2022-09-06T13:02:24;29.50;91.30
957;DHT22;465;48.802;9.224;2022-09-06T13:04:57;29.20;90.90
957;DHT22;465;48.802;9.224;2022-09-06T13:07:26;29.10;91.80
957;DHT22;465;48.802;9.224;2022-09-06T13:09:56;28.90;94.60
957;DHT22;465;48.802;9.224;2022-09-06T13:12:26;28.80;96.80
957;DHT22;465;48.802;9.224;2022-09-06T13:14:54;28.50;99.40
957;DHT22;465;48.802;9.224;2022-09-06T13:17:23;28.30;99.90
957;DHT22;465;48.802;9.224;2022-09-06T13:19:50;28.10;99.90
957;DHT22;465;48.802;9.224;2022-09-06T13:22:35;28.00;99.90
957;DHT22;465;48.802;9.224;2022-09-06T13:25:04;28.00;99.90
957;DHT22;465;48.802;9.224;2022-09-06T13:27:35;27.90;99.90
957;DHT22;465;48.802;9.224;2022-09-06T13:30:03;27.80;99.90
957;DHT22;465;48.802;9.224;2022-09-06T13:32:32;27.70;99.90
957;DHT22;465;48.802;9.224;2022-09-06T13:34:59;27.60;99.90
957;DHT22;465;48.802;9.224;2022-09-06T13:37:28;27.60;99.90
957;DHT22;465;48.802;9.224;2022-09-06T13:39:55;27.60;99.90
957;DHT22;465;48.802;9.224;2022-09-06T13:42:25;27.60;99.90
957;DHT22;465;48.802;9.224;2022-09-06T13:44:54;27.60;99.90
957;DHT22;465;48.802;9.224;2022-09-06T13:47:21;27.70;99.90
957;DHT22;465;48.802;9.224;2022-09-06T13:49:50;27.70;99.90
957;DHT22;465;48.802;9.224;2022-09-06T13:52:19;27.70;99.90
957;DHT22;465;48.802;9.224;2022-09-06T13:54:46;27.60;99.90
957;DHT22;465;48.802;9.224;2022-09-06T13:57:13;27.60;99.90
957;DHT22;465;48.802;9.224;2022-09-06T13:59:41;27.60;99.90
957;DHT22;465;48.802;9.224;2022-09-06T14:02:11;27.60;99.90
957;DHT22;465;48.802;9.224;2022-09-06T14:04:40;27.60;99.90
957;DHT22;465;48.802;9.224;2022-09-06T14:07:07;27.60;99.90
957;DHT22;465;48.802;9.224;2022-09-06T14:09:33;27.60;99.90
957;DHT22;465;48.802;9.224;2022-09-06T14:12:02;27.60;99.90
957;DHT22;465;48.802;9.224;2022-09-06T14:14:30;27.50;99.90
957;DHT22;465;48.802;9.224;2022-09-06T14:16:57;27.50;99.90
957;DHT22;465;48.802;9.224;2022-09-06T14:19:25;27.40;99.90
957;DHT22;465;48.802;9.224;2022-09-06T14:21:52;27.40;99.90
957;DHT22;465;48.802;9.224;2022-09-06T14:24:18;27.40;99.90
957;DHT22;465;48.802;9.224;2022-09-06T14:26:45;27.50;99.90
957;DHT22;465;48.802;9.224;2022-09-06T14:29:12;27.60;99.90
957;DHT22;465;48.802;9.224;2022-09-06T14:31:38;27.60;99.90
957;DHT22;465;48.802;9.224;2022-09-06T14:34:05;27.60;99.90
957;DHT22;465;48.802;9.224;2022-09-06T14:36:34;27.70;99.90
957;DHT22;465;48.802;9.224;2022-09-06T14:39:01;27.60;99.90
957;DHT22;465;48.802;9.224;2022-09-06T14:41:28;27.60;99.90
957;DHT22;465;48.802;9.224;2022-09-06T14:43:57;27.60;99.90
957;DHT22;465;48.802;9.224;2022-09-06T14:46:25;27.60;99.90
957;DHT22;465;48.802;9.224;2022-09-06T14:48:56;27.50;99.90
957;DHT22;465;48.802;9.224;2022-09-06T14:51:23;27.40;99.90
957;DHT22;465;48.802;9.224;2022-09-06T14:53:53;27.40;99.90
957;DHT22;465;48.802;9.224;2022-09-06T14:56:20;27.40;99.90
957;DHT22;465;48.802;9.224;2022-09-06T14:58:48;27.40;99.90
957;DHT22;465;48.802;9.224;2022-09-06T15:01:16;27.40;99.90
957;DHT22;465;48.802;9.224;2022-09-06T15:03:44;27.30;99.90
957;DHT22;465;48.802;9.224;2022-09-06T15:06:14;27.30;99.90
957;DHT22;465;48.802;9.224;2022-09-06T15:08:41;27.20;99.90
957;DHT22;465;48.802;9.224;2022-09-06T15:11:09;27.20;99.90
957;DHT22;465;48.802;9.224;2022-09-06T15:13:37;27.10;99.90
957;DHT22;465;48.802;9.224;2022-09-06T15:16:05;27.10;99.90
957;DHT22;465;48.802;9.224;2022-09-06T15:18:33;27.00;99.90
957;DHT22;465;48.802;9.224;2022-09-06T15:21:07;27.00;99.90
957;DHT22;465;48.802;9.224;2022-09-06T15:23:34;27.10;99.90
957;DHT22;465;48.802;9.224;2022-09-06T15:26:01;27.30;99.90
957;DHT22;465;48.802;9.224;2022-09-06T15:28:29;27.40;99.90
957;DHT22;465;48.802;9.224;2022-09-06T15:30:55;27.70;99.90
957;DHT22;465;48.802;9.224;2022-09-06T15:33:22;28.00;99.90
957;DHT22;465;48.802;9.224;2022-09-06T15:35:53;28.40;99.90
957;DHT22;465;48.802;9.224;2022-09-06T15:38:20;28.30;98.90
957;DHT22;465;48.802;9.224;2022-09-06T15:40:47;28.50;99.20
957;DHT22;465;48.802;9.224;2022-09-06T15:43:14;28.50;97.60
957;DHT22;465;48.802;9.224;2022-09-06T15:45:45;28.30;97.10
957;DHT22;465;48.802;9.224;2022-09-06T15:48:13;28.30;96.90
957;DHT22;465;48.802;9.224;2022-09-06T15:50:41;28.10;96.60
957;DHT22;465;48.802;9.224;2022-09-06T15:53:08;27.90;96.20
957;DHT22;465;48.802;9.224;2022-09-06T15:55:34;27.70;97.90
957;DHT22;465;48.802;9.224;2022-09-06T15:58:19;27.50;98.90
957;DHT22;465;48.802;9.224;2022-09-06T16:00:58;27.30;98.20
957;DHT22;465;48.802;9.224;2022-09-06T16:03:25;27.20;99.00
957;DHT22;465;48.802;9.224;2022-09-06T16:05:52;27.20;99.90
957;DHT22;465;48.802;9.224;2022-09-06T16:08:18;27.10;99.90
957;DHT22;465;48.802;9.224;2022-09-06T16:10:45;27.10;99.90
957;DHT22;465;48.802;9.224;2022-09-06T16:13:12;27.00;99.90
957;DHT22;465;48.802;9.224;2022-09-06T16:15:39;27.00;99.90
957;DHT22;465;48.802;9.224;2022-09-06T16:18:07;27.00;98.80
957;DHT22;465;48.802;9.224;2022-09-06T16:20:35;27.00;97.80
957;DHT22;465;48.802;9.224;2022-09-06T16:23:02;27.10;97.30
957;DHT22;465;48.802;9.224;2022-09-06T16:25:29;27.10;97.00
957;DHT22;465;48.802;9.224;2022-09-06T16:27:56;27.20;96.40
957;DHT22;465;48.802;9.224;2022-09-06T16:30:23;27.20;95.80
957;DHT22;465;48.802;9.224;2022-09-06T16:32:49;27.20;95.40
957;DHT22;465;48.802;9.224;2022-09-06T16:35:18;27.20;95.50
957;DHT22;465;48.802;9.224;2022-09-06T16:37:44;27.20;95.70
957;DHT22;465;48.802;9.224;2022-09-06T16:40:11;27.10;95.70
957;DHT22;465;48.802;9.224;2022-09-06T16:42:38;27.00;95.70
957;DHT22;465;48.802;9.224;2022-09-06T16:45:05;26.90;95.90
957;DHT22;465;48.802;9.224;2022-09-06T16:47:32;26.80;95.90
957;DHT22;465;48.802;9.224;2022-09-06T16:49:59;26.70;96.00
957;DHT22;465;48.802;9.224;2022-09-06T16:52:27;26.70;96.10
957;DHT22;465;48.802;9.224;2022-09-06T16:54:54;26.70;96.30
957;DHT22;465;48.802;9.224;2022-09-06T16:57:21;26.60;96.40
957;DHT22;465;48.802;9.224;2022-09-06T16:59:49;26.50;96.70
957;DHT22;465;48.802;9.224;2022-09-06T17:02:16;26.50;97.00
957;DHT22;465;48.802;9.224;2022-09-06T17:04:46;26.40;97.30